sensor_id;sensor_type;location;lat;lon;timestamp;temperature;humidity
74420;DHT22;62855;50.718;-2.460;2023-01-01T00:02:00;49.64;75.00
74420;DHT22;62855;50.718;-2.460;2023-01-01T00:05:01;49.64;75.00
74420;DHT22;62855;50.718;-2.460;2023-01-01T00:08:00;49.46;76.00
74420;DHT22;62855;50.718;-2.460;2023-01-01T00:11:00;49.46;76.00
74420;DHT22;62855;50.718;-2.460;2023-01-01T00:14:01;49.64;76.00
74420;DHT22;62855;50.718;-2.460;2023-01-01T00:17:00;49.64;76.00
74420;DHT22;62855;50.718;-2.460;2023-01-01T00:20:01;49.64;77.00
74420;DHT22;62855;50.718;-2.460;2023-01-01T00:23:01;49.46;77.00
74420;DHT22;62855;50.718;-2.460;2023-01-01T00:26:00;49.46;77.00
74420;DHT22;62855;50.718;-2.460;2023-01-01T00:29:01;49.46;77.00
74420;DHT22;62855;50.718;-2.460;2023-01-01T00:32:00;49.46;77.00
74420;DHT22;62855;50.718;-2.460;2023-01-01T00:35:00;49.46;78.00
74420;DHT22;62855;50.718;-2.460;2023-01-01T00:38:01;49.46;78.00
74420;DHT22;62855;50.718;-2.460;2023-01-01T00:41:01;49.46;78.00
74420;DHT22;62855;50.718;-2.460;2023-01-01T00:44:01;49.46;78.00
74420;DHT22;62855;50.718;-2.460;2023-01-01T00:47:00;49.28;78.00
74420;DHT22;62855;50.718;-2.460;2023-01-01T00:50:00;49.28;78.00
74420;DHT22;62855;50.718;-2.460;2023-01-01T00:53:00;49.28;78.00
74420;DHT22;62855;50.718;-2.460;2023-01-01T00:56:01;49.46;78.00
74420;DHT22;62855;50.718;-2.460;2023-01-01T00:59:01;49.46;78.00
74420;DHT22;62855;50.718;-2.460;2023-01-01T01:02:00;49.28;79.00
74420;DHT22;62855;50.718;-2.460;2023-01-01T01:05:00;49.28;79.00
74420;DHT22;62855;50.718;-2.460;2023-01-01T01:08:00;49.28;79.00
74420;DHT22;62855;50.718;-2.460;2023-01-01T01:11:03;49.28;79.00
74420;DHT22;62855;50.718;-2.460;2023-01-01T01:14:00;49.28;80.00
74420;DHT22;62855;50.718;-2.460;2023-01-01T01:17:01;49.28;80.00
74420;DHT22;62855;50.718;-2.460;2023-01-01T01:20:00;49.46;80.00
74420;DHT22;62855;50.718;-2.460;2023-01-01T01:23:00;49.46;80.00
74420;DHT22;62855;50.718;-2.460;2023-01-01T01:26:09;49.46;80.00
74420;DHT22;62855;50.718;-2.460;2023-01-01T01:29:01;49.46;80.00
74420;DHT22;62855;50.718;-2.460;2023-01-01T01:32:00;49.46;80.00
74420;DHT22;62855;50.718;-2.460;2023-01-01T01:35:01;49.46;80.00
74420;DHT22;62855;50.718;-2.460;2023-01-01T01:38:01;49.64;80.00
74420;DHT22;62855;50.718;-2.460;2023-01-01T01:41:01;49.64;80.00
74420;DHT22;62855;50.718;-2.460;2023-01-01T01:44:05;49.64;80.00
74420;DHT22;62855;50.718;-2.460;2023-01-01T01:47:01;49.64;79.00
74420;DHT22;62855;50.718;-2.460;2023-01-01T01:50:06;49.64;79.00
74420;DHT22;62855;50.718;-2.460;2023-01-01T01:53:04;49.64;79.00
74420;DHT22;62855;50.718;-2.460;2023-01-01T01:56:05;49.64;78.00
74420;DHT22;62855;50.718;-2.460;2023-01-01T01:59:01;49.64;78.00
74420;DHT22;62855;50.718;-2.460;2023-01-01T02:02:00;49.64;78.00
74420;DHT22;62855;50.718;-2.460;2023-01-01T02:05:02;49.64;78.00
74420;DHT22;62855;50.718;-2.460;2023-01-01T02:08:02;49.46;78.00
74420;DHT22;62855;50.718;-2.460;2023-01-01T02:11:00;49.46;78.00
74420;DHT22;62855;50.718;-2.460;2023-01-01T02:14:01;49.46;78.00
74420;DHT22;62855;50.718;-2.460;2023-01-01T02:17:06;49.46;78.00
74420;DHT22;62855;50.718;-2.460;2023-01-01T02:20:14;49.46;78.00
74420;DHT22;62855;50.718;-2.460;2023-01-01T02:26:12;49.64;78.00
74420;DHT22;62855;50.718;-2.460;2023-01-01T02:29:04;49.64;78.00
74420;DHT22;62855;50.718;-2.460;2023-01-01T02:32:02;49.64;78.00
74420;DHT22;62855;50.718;-2.460;2023-01-01T02:35:03;49.82;78.00
74420;DHT22;62855;50.718;-2.460;2023-01-01T02:38:05;49.82;78.00
74420;DHT22;62855;50.718;-2.460;2023-01-01T02:41:03;49.82;78.00
74420;DHT22;62855;50.718;-2.460;2023-01-01T02:44:02;49.82;79.00
74420;DHT22;62855;50.718;-2.460;2023-01-01T02:47:10;49.64;79.00
74420;DHT22;62855;50.718;-2.460;2023-01-01T02:50:07;49.64;79.00
74420;DHT22;62855;50.718;-2.460;2023-01-01T02:53:11;49.64;79.00
74420;DHT22;62855;50.718;-2.460;2023-01-01T02:56:07;49.64;79.00
74420;DHT22;62855;50.718;-2.460;2023-01-01T02:59:11;49.46;79.00
74420;DHT22;62855;50.718;-2.460;2023-01-01T03:02:09;49.46;79.00
74420;DHT22;62855;50.718;-2.460;2023-01-01T03:05:05;49.46;79.00
74420;DHT22;62855;50.718;-2.460;2023-01-01T03:08:06;49.46;79.00
74420;DHT22;62855;50.718;-2.460;2023-01-01T03:11:04;49.64;79.00
74420;DHT22;62855;50.718;-2.460;2023-01-01T03:14:05;49.64;79.00
74420;DHT22;62855;50.718;-2.460;2023-01-01T03:17:03;49.64;79.00
74420;DHT22;62855;50.718;-2.460;2023-01-01T03:20:05;49.64;79.00
74420;DHT22;62855;50.718;-2.460;2023-01-01T03:23:06;49.82;80.00
74420;DHT22;62855;50.718;-2.460;2023-01-01T03:26:04;50.00;80.00
74420;DHT22;62855;50.718;-2.460;2023-01-01T03:29:02;50.00;80.00
74420;DHT22;62855;50.718;-2.460;2023-01-01T03:32:03;50.00;80.00
74420;DHT22;62855;50.718;-2.460;2023-01-01T03:35:01;50.00;80.00
74420;DHT22;62855;50.718;-2.460;2023-01-01T03:38:03;50.18;80.00
74420;DHT22;62855;50.718;-2.460;2023-01-01T03:41:03;50.18;80.00
74420;DHT22;62855;50.718;-2.460;2023-01-01T03:44:04;50.18;80.00
74420;DHT22;62855;50.718;-2.460;2023-01-01T03:47:02;50.36;80.00
74420;DHT22;62855;50.718;-2.460;2023-01-01T03:50:02;50.36;79.00
74420;DHT22;62855;50.718;-2.460;2023-01-01T03:53:07;50.18;79.00
74420;DHT22;62855;50.718;-2.460;2023-01-01T03:56:06;50.18;78.00
74420;DHT22;62855;50.718;-2.460;2023-01-01T03:59:08;50.00;77.00
74420;DHT22;62855;50.718;-2.460;2023-01-01T04:02:02;50.00;75.00
74420;DHT22;62855;50.718;-2.460;2023-01-01T04:05:02;50.00;74.00
74420;DHT22;62855;50.718;-2.460;2023-01-01T04:08:01;49.82;73.00
74420;DHT22;62855;50.718;-2.460;2023-01-01T04:11:04;49.82;73.00
74420;DHT22;62855;50.718;-2.460;2023-01-01T04:14:00;49.64;73.00
74420;DHT22;62855;50.718;-2.460;2023-01-01T04:17:02;49.64;73.00
74420;DHT22;62855;50.718;-2.460;2023-01-01T04:20:01;49.64;74.00
74420;DHT22;62855;50.718;-2.460;2023-01-01T04:23:01;49.64;74.00
74420;DHT22;62855;50.718;-2.460;2023-01-01T04:26:01;49.64;75.00
74420;DHT22;62855;50.718;-2.460;2023-01-01T04:29:00;49.64;75.00
74420;DHT22;62855;50.718;-2.460;2023-01-01T04:32:01;49.64;75.00
74420;DHT22;62855;50.718;-2.460;2023-01-01T04:35:00;49.64;76.00
74420;DHT22;62855;50.718;-2.460;2023-01-01T04:38:00;49.64;76.00
74420;DHT22;62855;50.718;-2.460;2023-01-01T04:41:01;49.64;76.00
74420;DHT22;62855;50.718;-2.460;2023-01-01T04:44:01;49.64;77.00
74420;DHT22;62855;50.718;-2.460;2023-01-01T04:47:00;49.64;77.00
74420;DHT22;62855;50.718;-2.460;2023-01-01T04:50:00;49.64;78.00
74420;DHT22;62855;50.718;-2.460;2023-01-01T04:53:00;49.64;78.00
74420;DHT22;62855;50.718;-2.460;2023-01-01T04:56:03;49.82;78.00
74420;DHT22;62855;50.718;-2.460;2023-01-01T04:59:01;49.82;78.00
74420;DHT22;62855;50.718;-2.460;2023-01-01T05:02:01;49.82;78.00
74420;DHT22;62855;50.718;-2.460;2023-01-01T05:05:01;49.82;78.00
74420;DHT22;62855;50.718;-2.460;2023-01-01T05:08:00;49.82;78.00
74420;DHT22;62855;50.718;-2.460;2023-01-01T05:11:01;49.82;78.00
74420;DHT22;62855;50.718;-2.460;2023-01-01T05:14:01;49.82;78.00
74420;DHT22;62855;50.718;-2.460;2023-01-01T05:17:01;49.82;78.00
74420;DHT22;62855;50.718;-2.460;2023-01-01T05:20:00;49.82;78.00
74420;DHT22;62855;50.718;-2.460;2023-01-01T05:23:01;49.82;78.00
74420;DHT22;62855;50.718;-2.460;2023-01-01T05:26:08;49.82;78.00
74420;DHT22;62855;50.718;-2.460;2023-01-01T05:29:01;49.64;78.00
74420;DHT22;62855;50.718;-2.460;2023-01-01T05:32:00;49.64;78.00
74420;DHT22;62855;50.718;-2.460;2023-01-01T05:35:01;49.64;79.00
74420;DHT22;62855;50.718;-2.460;2023-01-01T05:38:01;49.64;79.00
74420;DHT22;62855;50.718;-2.460;2023-01-01T05:41:04;49.64;79.00
74420;DHT22;62855;50.718;-2.460;2023-01-01T05:44:01;49.64;79.00
74420;DHT22;62855;50.718;-2.460;2023-01-01T05:47:00;49.64;79.00
74420;DHT22;62855;50.718;-2.460;2023-01-01T05:50:01;49.64;79.00
74420;DHT22;62855;50.718;-2.460;2023-01-01T05:53:01;49.64;79.00
74420;DHT22;62855;50.718;-2.460;2023-01-01T05:56:01;49.64;79.00
74420;DHT22;62855;50.718;-2.460;2023-01-01T05:59:01;49.64;78.00
74420;DHT22;62855;50.718;-2.460;2023-01-01T06:02:01;49.82;78.00
74420;DHT22;62855;50.718;-2.460;2023-01-01T06:05:01;49.82;78.00
74420;DHT22;62855;50.718;-2.460;2023-01-01T06:08:01;49.82;78.00
74420;DHT22;62855;50.718;-2.460;2023-01-01T06:11:02;49.82;78.00
74420;DHT22;62855;50.718;-2.460;2023-01-01T06:14:01;50.00;78.00
74420;DHT22;62855;50.718;-2.460;2023-01-01T06:17:00;50.00;78.00
74420;DHT22;62855;50.718;-2.460;2023-01-01T06:20:00;50.00;77.00
74420;DHT22;62855;50.718;-2.460;2023-01-01T06:23:00;50.00;77.00
74420;DHT22;62855;50.718;-2.460;2023-01-01T06:26:06;50.18;77.00
74420;DHT22;62855;50.718;-2.460;2023-01-01T06:29:01;50.18;76.00
74420;DHT22;62855;50.718;-2.460;2023-01-01T06:32:00;50.00;76.00
74420;DHT22;62855;50.718;-2.460;2023-01-01T06:35:00;50.00;75.00
74420;DHT22;62855;50.718;-2.460;2023-01-01T06:38:01;50.00;75.00
74420;DHT22;62855;50.718;-2.460;2023-01-01T06:41:02;50.00;75.00
74420;DHT22;62855;50.718;-2.460;2023-01-01T06:44:01;50.00;75.00
74420;DHT22;62855;50.718;-2.460;2023-01-01T06:47:00;50.00;75.00
74420;DHT22;62855;50.718;-2.460;2023-01-01T06:50:01;49.82;75.00
74420;DHT22;62855;50.718;-2.460;2023-01-01T06:53:00;49.82;75.00
74420;DHT22;62855;50.718;-2.460;2023-01-01T06:56:00;49.82;75.00
74420;DHT22;62855;50.718;-2.460;2023-01-01T06:59:01;49.64;75.00
74420;DHT22;62855;50.718;-2.460;2023-01-01T07:02:01;49.64;75.00
74420;DHT22;62855;50.718;-2.460;2023-01-01T07:05:00;49.82;76.00
74420;DHT22;62855;50.718;-2.460;2023-01-01T07:08:00;49.82;76.00
74420;DHT22;62855;50.718;-2.460;2023-01-01T07:11:00;50.00;77.00
74420;DHT22;62855;50.718;-2.460;2023-01-01T07:14:01;50.00;77.00
74420;DHT22;62855;50.718;-2.460;2023-01-01T07:17:00;50.00;77.00
74420;DHT22;62855;50.718;-2.460;2023-01-01T07:20:01;50.18;77.00
74420;DHT22;62855;50.718;-2.460;2023-01-01T07:23:00;50.36;77.00
74420;DHT22;62855;50.718;-2.460;2023-01-01T07:26:00;50.36;77.00
74420;DHT22;62855;50.718;-2.460;2023-01-01T07:29:00;50.36;78.00
74420;DHT22;62855;50.718;-2.460;2023-01-01T07:32:00;50.36;78.00
74420;DHT22;62855;50.718;-2.460;2023-01-01T07:35:00;50.36;78.00
74420;DHT22;62855;50.718;-2.460;2023-01-01T07:38:00;50.36;78.00
74420;DHT22;62855;50.718;-2.460;2023-01-01T07:41:01;50.36;78.00
74420;DHT22;62855;50.718;-2.460;2023-01-01T07:44:01;50.36;79.00
74420;DHT22;62855;50.718;-2.460;2023-01-01T07:47:01;50.36;79.00
74420;DHT22;62855;50.718;-2.460;2023-01-01T07:50:01;50.18;79.00
74420;DHT22;62855;50.718;-2.460;2023-01-01T07:53:01;50.18;79.00
74420;DHT22;62855;50.718;-2.460;2023-01-01T07:56:00;50.18;79.00
74420;DHT22;62855;50.718;-2.460;2023-01-01T07:59:01;50.00;79.00
74420;DHT22;62855;50.718;-2.460;2023-01-01T08:02:00;50.00;79.00
74420;DHT22;62855;50.718;-2.460;2023-01-01T08:05:01;50.00;79.00
74420;DHT22;62855;50.718;-2.460;2023-01-01T08:08:01;49.82;79.00
74420;DHT22;62855;50.718;-2.460;2023-01-01T08:11:01;49.82;79.00
74420;DHT22;62855;50.718;-2.460;2023-01-01T08:14:00;49.64;79.00
74420;DHT22;62855;50.718;-2.460;2023-01-01T08:17:00;49.64;79.00
74420;DHT22;62855;50.718;-2.460;2023-01-01T08:20:01;49.64;79.00
74420;DHT22;62855;50.718;-2.460;2023-01-01T08:23:01;49.82;79.00
74420;DHT22;62855;50.718;-2.460;2023-01-01T08:26:01;49.82;79.00
74420;DHT22;62855;50.718;-2.460;2023-01-01T08:29:02;49.64;79.00
74420;DHT22;62855;50.718;-2.460;2023-01-01T08:32:00;49.64;79.00
74420;DHT22;62855;50.718;-2.460;2023-01-01T08:35:00;49.64;79.00
74420;DHT22;62855;50.718;-2.460;2023-01-01T08:38:00;49.64;79.00
74420;DHT22;62855;50.718;-2.460;2023-01-01T08:41:00;49.82;79.00
74420;DHT22;62855;50.718;-2.460;2023-01-01T08:44:00;50.00;80.00
74420;DHT22;62855;50.718;-2.460;2023-01-01T08:47:01;50.00;80.00
74420;DHT22;62855;50.718;-2.460;2023-01-01T08:50:01;50.00;79.00
74420;DHT22;62855;50.718;-2.460;2023-01-01T08:53:01;50.00;79.00
74420;DHT22;62855;50.718;-2.460;2023-01-01T08:56:03;50.00;79.00
74420;DHT22;62855;50.718;-2.460;2023-01-01T08:59:01;50.00;79.00
74420;DHT22;62855;50.718;-2.460;2023-01-01T09:02:00;50.00;79.00
74420;DHT22;62855;50.718;-2.460;2023-01-01T09:05:01;50.00;80.00
74420;DHT22;62855;50.718;-2.460;2023-01-01T09:08:01;50.18;80.00
74420;DHT22;62855;50.718;-2.460;2023-01-01T09:11:01;50.18;80.00
74420;DHT22;62855;50.718;-2.460;2023-01-01T09:14:00;50.18;80.00
74420;DHT22;62855;50.718;-2.460;2023-01-01T09:17:01;50.18;80.00
74420;DHT22;62855;50.718;-2.460;2023-01-01T09:20:00;50.18;80.00
74420;DHT22;62855;50.718;-2.460;2023-01-01T09:23:01;50.18;80.00
74420;DHT22;62855;50.718;-2.460;2023-01-01T09:26:01;50.18;80.00
74420;DHT22;62855;50.718;-2.460;2023-01-01T09:29:01;50.18;80.00
74420;DHT22;62855;50.718;-2.460;2023-01-01T09:32:01;50.36;80.00
74420;DHT22;62855;50.718;-2.460;2023-01-01T09:35:01;50.36;80.00
74420;DHT22;62855;50.718;-2.460;2023-01-01T09:38:01;50.36;80.00
74420;DHT22;62855;50.718;-2.460;2023-01-01T09:41:09;50.36;80.00
74420;DHT22;62855;50.718;-2.460;2023-01-01T09:44:03;50.36;80.00
74420;DHT22;62855;50.718;-2.460;2023-01-01T09:47:03;50.36;80.00
74420;DHT22;62855;50.718;-2.460;2023-01-01T09:50:04;50.54;80.00
74420;DHT22;62855;50.718;-2.460;2023-01-01T09:53:03;50.54;80.00
74420;DHT22;62855;50.718;-2.460;2023-01-01T09:56:03;50.54;80.00
74420;DHT22;62855;50.718;-2.460;2023-01-01T09:59:01;50.72;80.00
74420;DHT22;62855;50.718;-2.460;2023-01-01T10:02:11;50.72;80.00
74420;DHT22;62855;50.718;-2.460;2023-01-01T10:05:11;50.72;80.00
74420;DHT22;62855;50.718;-2.460;2023-01-01T10:08:05;50.72;80.00
74420;DHT22;62855;50.718;-2.460;2023-01-01T10:11:07;50.90;81.00
74420;DHT22;62855;50.718;-2.460;2023-01-01T10:14:04;50.90;81.00
74420;DHT22;62855;50.718;-2.460;2023-01-01T10:17:03;50.90;81.00
74420;DHT22;62855;50.718;-2.460;2023-01-01T10:20:03;50.90;81.00
74420;DHT22;62855;50.718;-2.460;2023-01-01T10:23:06;50.90;81.00
74420;DHT22;62855;50.718;-2.460;2023-01-01T10:26:06;50.90;81.00
74420;DHT22;62855;50.718;-2.460;2023-01-01T10:29:04;50.90;81.00
74420;DHT22;62855;50.718;-2.460;2023-01-01T10:32:05;50.90;81.00
74420;DHT22;62855;50.718;-2.460;2023-01-01T10:35:04;50.90;81.00
74420;DHT22;62855;50.718;-2.460;2023-01-01T10:38:02;50.90;81.00
74420;DHT22;62855;50.718;-2.460;2023-01-01T10:41:05;50.90;81.00
74420;DHT22;62855;50.718;-2.460;2023-01-01T10:44:01;50.90;81.00
74420;DHT22;62855;50.718;-2.460;2023-01-01T10:47:19;50.90;81.00
74420;DHT22;62855;50.718;-2.460;2023-01-01T10:50:03;50.90;81.00
74420;DHT22;62855;50.718;-2.460;2023-01-01T10:53:00;50.90;81.00
74420;DHT22;62855;50.718;-2.460;2023-01-01T10:56:07;50.90;81.00
74420;DHT22;62855;50.718;-2.460;2023-01-01T10:59:00;50.90;81.00
74420;DHT22;62855;50.718;-2.460;2023-01-01T11:02:16;51.08;81.00
74420;DHT22;62855;50.718;-2.460;2023-01-01T11:05:14;51.08;81.00
74420;DHT22;62855;50.718;-2.460;2023-01-01T11:08:01;51.08;81.00
74420;DHT22;62855;50.718;-2.460;2023-01-01T11:11:02;51.08;81.00
74420;DHT22;62855;50.718;-2.460;2023-01-01T11:14:02;51.08;81.00
74420;DHT22;62855;50.718;-2.460;2023-01-01T11:17:01;51.08;81.00
74420;DHT22;62855;50.718;-2.460;2023-01-01T11:20:03;51.08;81.00
74420;DHT22;62855;50.718;-2.460;2023-01-01T11:23:23;51.08;81.00
74420;DHT22;62855;50.718;-2.460;2023-01-01T11:26:04;51.08;81.00
74420;DHT22;62855;50.718;-2.460;2023-01-01T11:29:02;51.08;81.00
74420;DHT22;62855;50.718;-2.460;2023-01-01T11:32:00;51.08;81.00
74420;DHT22;62855;50.718;-2.460;2023-01-01T11:35:03;51.08;81.00
74420;DHT22;62855;50.718;-2.460;2023-01-01T11:38:01;51.08;81.00
74420;DHT22;62855;50.718;-2.460;2023-01-01T11:41:03;51.26;81.00
74420;DHT22;62855;50.718;-2.460;2023-01-01T11:44:00;51.26;81.00
74420;DHT22;62855;50.718;-2.460;2023-01-01T11:47:02;51.26;81.00
74420;DHT22;62855;50.718;-2.460;2023-01-01T11:50:05;51.26;81.00
74420;DHT22;62855;50.718;-2.460;2023-01-01T11:53:16;51.26;81.00
74420;DHT22;62855;50.718;-2.460;2023-01-01T11:56:05;51.26;81.00
74420;DHT22;62855;50.718;-2.460;2023-01-01T11:59:04;51.26;81.00
74420;DHT22;62855;50.718;-2.460;2023-01-01T12:02:02;51.26;81.00
74420;DHT22;62855;50.718;-2.460;2023-01-01T12:05:07;51.26;81.00
74420;DHT22;62855;50.718;-2.460;2023-01-01T12:08:02;51.26;81.00
74420;DHT22;62855;50.718;-2.460;2023-01-01T12:11:07;51.26;81.00
74420;DHT22;62855;50.718;-2.460;2023-01-01T12:14:07;51.26;81.00
74420;DHT22;62855;50.718;-2.460;2023-01-01T12:17:02;51.26;82.00
74420;DHT22;62855;50.718;-2.460;2023-01-01T12:20:04;51.44;82.00
74420;DHT22;62855;50.718;-2.460;2023-01-01T12:23:01;51.44;82.00
74420;DHT22;62855;50.718;-2.460;2023-01-01T12:26:11;51.44;82.00
74420;DHT22;62855;50.718;-2.460;2023-01-01T12:29:11;51.26;82.00
74420;DHT22;62855;50.718;-2.460;2023-01-01T12:32:06;51.26;82.00
74420;DHT22;62855;50.718;-2.460;2023-01-01T12:35:08;51.26;82.00
74420;DHT22;62855;50.718;-2.460;2023-01-01T12:38:11;51.26;81.00
74420;DHT22;62855;50.718;-2.460;2023-01-01T12:42:04;51.26;81.00
74420;DHT22;62855;50.718;-2.460;2023-01-01T12:45:15;51.26;81.00
74420;DHT22;62855;50.718;-2.460;2023-01-01T12:48:14;51.26;81.00
74420;DHT22;62855;50.718;-2.460;2023-01-01T12:51:06;51.08;81.00
74420;DHT22;62855;50.718;-2.460;2023-01-01T12:54:13;51.08;81.00
74420;DHT22;62855;50.718;-2.460;2023-01-01T12:57:05;51.08;81.00
74420;DHT22;62855;50.718;-2.460;2023-01-01T13:00:03;51.08;81.00
74420;DHT22;62855;50.718;-2.460;2023-01-01T13:03:05;51.08;81.00
74420;DHT22;62855;50.718;-2.460;2023-01-01T13:06:01;51.08;82.00
74420;DHT22;62855;50.718;-2.460;2023-01-01T13:09:03;51.08;82.00
74420;DHT22;62855;50.718;-2.460;2023-01-01T13:12:04;51.08;82.00
74420;DHT22;62855;50.718;-2.460;2023-01-01T13:18:02;51.08;82.00
74420;DHT22;62855;50.718;-2.460;2023-01-01T13:21:05;51.08;82.00
74420;DHT22;62855;50.718;-2.460;2023-01-01T13:24:04;51.08;82.00
74420;DHT22;62855;50.718;-2.460;2023-01-01T13:27:01;51.08;83.00
74420;DHT22;62855;50.718;-2.460;2023-01-01T13:30:00;51.08;83.00
74420;DHT22;62855;50.718;-2.460;2023-01-01T13:33:17;51.08;83.00
74420;DHT22;62855;50.718;-2.460;2023-01-01T13:36:28;51.08;83.00
74420;DHT22;62855;50.718;-2.460;2023-01-01T13:39:00;51.08;83.00
74420;DHT22;62855;50.718;-2.460;2023-01-01T13:42:00;51.08;83.00
74420;DHT22;62855;50.718;-2.460;2023-01-01T13:45:00;51.08;83.00
74420;DHT22;62855;50.718;-2.460;2023-01-01T13:48:13;51.08;83.00
74420;DHT22;62855;50.718;-2.460;2023-01-01T13:51:15;51.08;83.00
74420;DHT22;62855;50.718;-2.460;2023-01-01T13:54:19;51.08;83.00
74420;DHT22;62855;50.718;-2.460;2023-01-01T13:57:02;51.08;83.00
74420;DHT22;62855;50.718;-2.460;2023-01-01T14:00:14;51.08;83.00
74420;DHT22;62855;50.718;-2.460;2023-01-01T14:03:07;51.08;83.00
74420;DHT22;62855;50.718;-2.460;2023-01-01T14:06:02;50.90;83.00
74420;DHT22;62855;50.718;-2.460;2023-01-01T14:09:02;50.90;83.00
74420;DHT22;62855;50.718;-2.460;2023-01-01T14:12:08;50.90;83.00
74420;DHT22;62855;50.718;-2.460;2023-01-01T14:15:14;50.90;83.00
74420;DHT22;62855;50.718;-2.460;2023-01-01T14:18:03;50.90;83.00
74420;DHT22;62855;50.718;-2.460;2023-01-01T14:21:01;50.90;83.00
74420;DHT22;62855;50.718;-2.460;2023-01-01T14:24:03;50.90;82.00
74420;DHT22;62855;50.718;-2.460;2023-01-01T14:27:04;50.90;82.00
74420;DHT22;62855;50.718;-2.460;2023-01-01T14:30:00;50.90;82.00
74420;DHT22;62855;50.718;-2.460;2023-01-01T14:33:01;50.90;82.00
74420;DHT22;62855;50.718;-2.460;2023-01-01T14:36:03;50.54;80.00
74420;DHT22;62855;50.718;-2.460;2023-01-01T14:39:00;50.54;73.00
74420;DHT22;62855;50.718;-2.460;2023-01-01T14:42:02;50.54;68.00
74420;DHT22;62855;50.718;-2.460;2023-01-01T14:45:01;50.36;65.00
74420;DHT22;62855;50.718;-2.460;2023-01-01T14:48:00;50.18;64.00
74420;DHT22;62855;50.718;-2.460;2023-01-01T14:51:01;49.82;65.00
74420;DHT22;62855;50.718;-2.460;2023-01-01T14:54:02;49.64;66.00
74420;DHT22;62855;50.718;-2.460;2023-01-01T14:57:00;49.46;66.00
74420;DHT22;62855;50.718;-2.460;2023-01-01T15:00:02;49.28;68.00
74420;DHT22;62855;50.718;-2.460;2023-01-01T15:03:06;49.10;70.00
74420;DHT22;62855;50.718;-2.460;2023-01-01T15:06:02;48.92;70.00
74420;DHT22;62855;50.718;-2.460;2023-01-01T15:09:00;48.74;70.00
74420;DHT22;62855;50.718;-2.460;2023-01-01T15:12:00;48.56;70.00
74420;DHT22;62855;50.718;-2.460;2023-01-01T15:15:00;48.56;70.00
74420;DHT22;62855;50.718;-2.460;2023-01-01T15:18:01;48.38;71.00
74420;DHT22;62855;50.718;-2.460;2023-01-01T15:21:01;48.20;71.00
74420;DHT22;62855;50.718;-2.460;2023-01-01T15:24:04;48.02;72.00
74420;DHT22;62855;50.718;-2.460;2023-01-01T15:27:02;47.84;72.00
74420;DHT22;62855;50.718;-2.460;2023-01-01T15:30:03;47.84;73.00
74420;DHT22;62855;50.718;-2.460;2023-01-01T15:33:05;47.66;74.00
74420;DHT22;62855;50.718;-2.460;2023-01-01T15:36:00;47.66;74.00
74420;DHT22;62855;50.718;-2.460;2023-01-01T15:39:00;47.48;75.00
74420;DHT22;62855;50.718;-2.460;2023-01-01T15:42:01;47.48;75.00
74420;DHT22;62855;50.718;-2.460;2023-01-01T15:45:14;47.48;76.00
74420;DHT22;62855;50.718;-2.460;2023-01-01T15:48:17;47.30;76.00
74420;DHT22;62855;50.718;-2.460;2023-01-01T15:51:05;47.30;77.00
74420;DHT22;62855;50.718;-2.460;2023-01-01T15:54:01;47.30;77.00
74420;DHT22;62855;50.718;-2.460;2023-01-01T15:57:01;47.12;77.00
74420;DHT22;62855;50.718;-2.460;2023-01-01T16:00:01;47.12;77.00
74420;DHT22;62855;50.718;-2.460;2023-01-01T16:03:10;47.12;78.00
74420;DHT22;62855;50.718;-2.460;2023-01-01T16:06:01;47.12;78.00
74420;DHT22;62855;50.718;-2.460;2023-01-01T16:09:00;47.12;78.00
74420;DHT22;62855;50.718;-2.460;2023-01-01T16:12:01;47.12;78.00
74420;DHT22;62855;50.718;-2.460;2023-01-01T16:15:00;47.12;78.00
74420;DHT22;62855;50.718;-2.460;2023-01-01T16:18:01;46.94;79.00
74420;DHT22;62855;50.718;-2.460;2023-01-01T16:21:01;46.94;79.00
74420;DHT22;62855;50.718;-2.460;2023-01-01T16:24:00;46.94;79.00
74420;DHT22;62855;50.718;-2.460;2023-01-01T16:27:00;46.94;79.00
74420;DHT22;62855;50.718;-2.460;2023-01-01T16:30:01;46.94;79.00
74420;DHT22;62855;50.718;-2.460;2023-01-01T16:34:01;46.94;79.00
74420;DHT22;62855;50.718;-2.460;2023-01-01T16:37:00;46.94;80.00
74420;DHT22;62855;50.718;-2.460;2023-01-01T16:40:01;46.76;80.00
74420;DHT22;62855;50.718;-2.460;2023-01-01T16:43:01;46.76;80.00
74420;DHT22;62855;50.718;-2.460;2023-01-01T16:46:00;46.94;80.00
74420;DHT22;62855;50.718;-2.460;2023-01-01T16:49:00;46.94;80.00
74420;DHT22;62855;50.718;-2.460;2023-01-01T16:52:00;46.94;80.00
74420;DHT22;62855;50.718;-2.460;2023-01-01T16:55:00;46.94;80.00
74420;DHT22;62855;50.718;-2.460;2023-01-01T16:58:00;46.94;80.00
74420;DHT22;62855;50.718;-2.460;2023-01-01T17:01:00;46.94;81.00
74420;DHT22;62855;50.718;-2.460;2023-01-01T17:04:00;46.94;81.00
74420;DHT22;62855;50.718;-2.460;2023-01-01T17:07:00;46.94;81.00
74420;DHT22;62855;50.718;-2.460;2023-01-01T17:10:01;46.94;81.00
74420;DHT22;62855;50.718;-2.460;2023-01-01T17:13:01;46.94;81.00
74420;DHT22;62855;50.718;-2.460;2023-01-01T17:16:01;47.12;81.00
74420;DHT22;62855;50.718;-2.460;2023-01-01T17:19:00;47.12;82.00
74420;DHT22;62855;50.718;-2.460;2023-01-01T17:22:00;47.12;82.00
74420;DHT22;62855;50.718;-2.460;2023-01-01T17:25:00;47.12;82.00
74420;DHT22;62855;50.718;-2.460;2023-01-01T17:28:00;47.12;82.00
74420;DHT22;62855;50.718;-2.460;2023-01-01T17:31:02;46.94;82.00
74420;DHT22;62855;50.718;-2.460;2023-01-01T17:34:01;46.94;82.00
74420;DHT22;62855;50.718;-2.460;2023-01-01T17:37:00;46.76;82.00
74420;DHT22;62855;50.718;-2.460;2023-01-01T17:40:01;46.58;82.00
74420;DHT22;62855;50.718;-2.460;2023-01-01T17:43:00;46.40;82.00
74420;DHT22;62855;50.718;-2.460;2023-01-01T17:46:02;46.40;82.00
74420;DHT22;62855;50.718;-2.460;2023-01-01T17:49:02;46.40;82.00
74420;DHT22;62855;50.718;-2.460;2023-01-01T17:52:00;46.22;82.00
74420;DHT22;62855;50.718;-2.460;2023-01-01T17:55:00;46.04;82.00
74420;DHT22;62855;50.718;-2.460;2023-01-01T17:58:00;46.04;82.00
74420;DHT22;62855;50.718;-2.460;2023-01-01T18:01:12;46.04;82.00
74420;DHT22;62855;50.718;-2.460;2023-01-01T18:04:03;45.86;82.00
74420;DHT22;62855;50.718;-2.460;2023-01-01T18:07:00;45.86;82.00
74420;DHT22;62855;50.718;-2.460;2023-01-01T18:10:01;45.86;82.00
74420;DHT22;62855;50.718;-2.460;2023-01-01T18:13:01;45.86;82.00
74420;DHT22;62855;50.718;-2.460;2023-01-01T18:16:01;45.68;82.00
74420;DHT22;62855;50.718;-2.460;2023-01-01T18:19:01;45.68;82.00
74420;DHT22;62855;50.718;-2.460;2023-01-01T18:22:00;45.68;82.00
74420;DHT22;62855;50.718;-2.460;2023-01-01T18:25:00;45.68;82.00
74420;DHT22;62855;50.718;-2.460;2023-01-01T18:28:00;45.68;82.00
74420;DHT22;62855;50.718;-2.460;2023-01-01T18:31:03;45.68;82.00
74420;DHT22;62855;50.718;-2.460;2023-01-01T18:34:01;45.68;82.00
74420;DHT22;62855;50.718;-2.460;2023-01-01T18:37:00;45.86;82.00
74420;DHT22;62855;50.718;-2.460;2023-01-01T18:40:00;45.86;82.00
74420;DHT22;62855;50.718;-2.460;2023-01-01T18:43:03;45.86;82.00
74420;DHT22;62855;50.718;-2.460;2023-01-01T18:46:00;45.86;82.00